Time;durP1;ratioP1;P1;durP2;ratioP2;P2;SDS_P1;SDS_P2;PMS_P1;PMS_P2;Temp;Humidity;BMP_temperature;BMP_pressure;BME280_temperature;BME280_humidity;BME280_pressure;Samples;Min_cycle;Max_cycle;Signal;HPM_P1;HPM_P2
2022/10/07 00:00:45;;;;;;;10.57;7.05;;;;;;;5.42;100.00;102042.66;5046005;28;20072;-76
2022/10/07 00:03:10;;;;;;;11.10;7.38;;;;;;;5.42;100.00;102038.34;5041958;28;20060;-76
2022/10/07 00:05:36;;;;;;;12.75;7.47;;;;;;;5.39;100.00;102040.81;5051781;28;20506;-76
2022/10/07 00:08:01;;;;;;;8.32;7.47;;;;;;;5.40;100.00;102037.41;5047446;28;20037;-76
2022/10/07 00:10:28;;;;;;;8.48;7.25;;;;;;;5.39;100.00;102039.94;5044064;28;20042;-76
2022/10/07 00:12:54;;;;;;;10.25;7.40;;;;;;;5.32;99.64;102037.91;5042621;28;20045;-76
2022/10/07 00:15:19;;;;;;;8.00;7.10;;;;;;;5.26;100.00;102041.19;5045284;28;20041;-76
2022/10/07 00:17:45;;;;;;;13.15;7.60;;;;;;;5.19;100.00;102029.59;5042083;28;20125;-76
2022/10/07 00:20:10;;;;;;;12.40;7.35;;;;;;;5.19;100.00;102024.34;5044691;28;20036;-76
2022/10/07 00:22:35;;;;;;;9.65;6.90;;;;;;;5.24;100.00;102028.03;5044324;28;20029;-76
2022/10/07 00:25:01;;;;;;;13.18;7.88;;;;;;;5.27;100.00;102029.91;5047073;28;20091;-75
2022/10/07 00:27:26;;;;;;;13.82;6.88;;;;;;;5.24;100.00;102027.16;5045715;28;20036;-76
2022/10/07 00:29:51;;;;;;;11.77;6.68;;;;;;;5.24;100.00;102028.03;5040978;28;20072;-76
2022/10/07 00:32:17;;;;;;;10.43;6.75;;;;;;;5.17;100.00;102025.13;5056494;28;20041;-76
2022/10/07 00:34:42;;;;;;;11.50;7.88;;;;;;;5.14;100.00;102025.91;5043526;28;20064;-76
2022/10/07 00:37:07;;;;;;;9.07;7.38;;;;;;;5.20;100.00;102014.78;5042367;28;20479;-76
2022/10/07 00:39:33;;;;;;;14.70;7.20;;;;;;;5.21;100.00;102003.47;5043598;28;20087;-76
2022/10/07 00:41:59;;;;;;;9.95;7.07;;;;;;;5.14;99.87;102007.56;5055668;28;20037;-76
2022/10/07 00:44:30;;;;;;;11.55;6.65;;;;;;;5.16;100.00;102012.84;5044224;28;20398;-76
2022/10/07 00:47:03;;;;;;;10.00;7.15;;;;;;;5.16;100.00;102005.00;5041606;28;20124;-76
2022/10/07 00:49:30;;;;;;;8.38;6.13;;;;;;;5.09;100.00;102000.38;5041864;28;20029;-76
2022/10/07 00:51:57;;;;;;;13.10;7.57;;;;;;;5.03;99.78;101995.75;5039484;28;20499;-76
2022/10/07 00:54:23;;;;;;;10.10;6.70;;;;;;;5.01;100.00;101994.84;5040490;28;20034;-76
2022/10/07 00:56:50;;;;;;;8.93;6.38;;;;;;;5.02;100.00;101996.59;5045436;28;20040;-76
2022/10/07 00:59:17;;;;;;;11.13;7.22;;;;;;;5.07;100.00;102000.31;5037750;28;20035;-76
2022/10/07 01:01:43;;;;;;;7.68;6.85;;;;;;;5.07;100.00;101992.44;5042966;28;20384;-76
2022/10/07 01:04:09;;;;;;;10.27;6.85;;;;;;;5.05;100.00;101996.72;5045068;28;20040;-76
2022/10/07 01:06:38;;;;;;;9.88;6.88;;;;;;;5.00;99.80;101996.56;5040985;28;20087;-76
2022/10/07 01:09:06;;;;;;;10.40;7.20;;;;;;;4.95;99.69;101986.72;5040431;28;20075;-75
2022/10/07 01:11:56;;;;;;;11.45;6.22;;;;;;;4.95;100.00;101989.34;5043015;28;20116;-76
2022/10/07 01:14:29;;;;;;;8.68;7.20;;;;;;;4.91;100.00;101983.09;5042836;28;20281;-76
2022/10/07 01:17:08;;;;;;;8.15;6.53;;;;;;;4.87;100.00;101986.41;5040929;28;20051;-76
2022/10/07 01:19:49;;;;;;;14.50;6.65;;;;;;;4.84;100.00;101973.22;5043035;28;20446;-76
2022/10/07 01:22:33;;;;;;;8.93;6.45;;;;;;;4.83;100.00;101972.31;5041108;28;20069;-76
2022/10/07 01:25:23;;;;;;;9.00;6.35;;;;;;;4.86;100.00;101973.28;5039485;28;20037;-76
2022/10/07 01:28:15;;;;;;;6.72;6.05;;;;;;;4.86;100.00;101971.56;5042680;28;20083;-76
2022/10/07 01:30:47;;;;;;;7.85;6.60;;;;;;;4.89;100.00;101960.31;5012636;28;20042;-76
2022/10/07 01:33:20;;;;;;;8.82;7.00;;;;;;;4.87;100.00;101961.97;5040738;28;20387;-76
2022/10/07 01:35:49;;;;;;;9.27;6.25;;;;;;;4.83;100.00;101958.38;5043683;28;20033;-76
2022/10/07 01:38:18;;;;;;;9.73;6.82;;;;;;;4.81;100.00;101957.41;5041164;28;20026;-76
2022/10/07 01:40:56;;;;;;;8.57;6.85;;;;;;;4.82;100.00;101954.84;5040800;28;20060;-76
2022/10/07 01:43:22;;;;;;;9.73;6.32;;;;;;;4.81;100.00;101947.81;5039461;28;20029;-76
2022/10/07 01:45:50;;;;;;;10.40;7.32;;;;;;;4.81;100.00;101939.97;5024962;28;20037;-76
2022/10/07 01:48:16;;;;;;;8.88;6.38;;;;;;;4.77;100.00;101942.44;5042224;28;20449;-76
2022/10/07 01:50:44;;;;;;;6.78;6.07;;;;;;;4.76;100.00;101938.91;5039655;28;20037;-76
2022/10/07 01:53:18;;;;;;;8.55;6.40;;;;;;;4.82;100.00;101939.16;5055006;28;20033;-76
2022/10/07 01:56:09;;;;;;;11.55;7.05;;;;;;;4.81;100.00;101934.75;5042031;28;20053;-76
2022/10/07 01:58:52;;;;;;;12.55;6.80;;;;;;;4.86;100.00;101932.31;5054016;28;20033;-76
2022/10/07 02:01:40;;;;;;;7.05;5.95;;;;;;;4.87;100.00;101936.72;5045145;28;20037;-76
2022/10/07 02:04:24;;;;;;;8.15;6.00;;;;;;;4.80;100.00;101925.13;5040508;28;20420;-76
2022/10/07 02:07:09;;;;;;;10.85;6.60;;;;;;;4.76;100.00;101920.59;5038156;28;20478;-76
2022/10/07 02:09:42;;;;;;;8.48;5.63;;;;;;;4.73;100.00;101923.09;5042337;28;20457;-76
2022/10/07 02:12:36;;;;;;;8.05;6.63;;;;;;;4.65;100.00;101918.41;5041374;28;20029;-76
2022/10/07 02:15:09;;;;;;;13.68;6.82;;;;;;;4.66;100.00;101921.06;5044538;28;20090;-76
2022/10/07 02:17:40;;;;;;;9.18;6.45;;;;;;;4.64;100.00;101922.75;5043359;28;20399;-76
2022/10/07 02:20:09;;;;;;;9.70;6.20;;;;;;;4.57;100.00;101907.63;5056814;28;20033;-76
2022/10/07 02:22:37;;;;;;;8.38;6.90;;;;;;;4.58;100.00;101912.94;5041691;28;20406;-76
2022/10/07 02:25:03;;;;;;;9.02;5.97;;;;;;;4.61;100.00;101913.03;5044454;28;20069;-76
2022/10/07 02:27:33;;;;;;;11.95;6.22;;;;;;;4.64;100.00;101906.13;5038186;28;20116;-76
2022/10/07 02:30:21;;;;;;;11.43;6.85;;;;;;;4.62;100.00;101913.94;5055842;28;20407;-76
2022/10/07 02:32:56;;;;;;;7.80;6.50;;;;;;;4.59;100.00;101913.81;5055228;28;20061;-76
2022/10/07 02:35:30;;;;;;;10.55;6.85;;;;;;;4.62;100.00;101906.09;5039236;28;20041;-76
2022/10/07 02:38:00;;;;;;;10.52;6.78;;;;;;;4.61;100.00;101905.19;5038552;28;20032;-76
2022/10/07 02:40:34;;;;;;;8.75;6.60;;;;;;;4.62;100.00;101908.69;5040388;28;20060;-76
2022/10/07 02:43:05;;;;;;;8.00;5.72;;;;;;;4.60;100.00;101899.91;5037759;28;20033;-76
2022/10/07 02:45:39;;;;;;;10.18;6.30;;;;;;;4.57;100.00;101897.16;5038113;28;20037;-76
2022/10/07 02:48:26;;;;;;;7.75;5.75;;;;;;;4.54;100.00;101891.81;5039358;28;20091;-76
2022/10/07 02:50:57;;;;;;;8.77;6.60;;;;;;;4.47;100.00;101892.38;5041528;28;20034;-76
2022/10/07 02:53:27;;;;;;;10.48;6.75;;;;;;;4.51;100.00;101889.09;5038264;28;20033;-76
2022/10/07 02:55:55;;;;;;;7.93;6.68;;;;;;;4.54;100.00;101881.38;5041689;28;20491;-76
2022/10/07 02:58:25;;;;;;;8.07;6.70;;;;;;;4.52;100.00;101876.06;5058570;28;20040;-76
2022/10/07 03:00:56;;;;;;;7.82;6.53;;;;;;;4.49;100.00;101880.28;5038467;28;20030;-76
2022/10/07 03:03:23;;;;;;;8.35;7.00;;;;;;;4.47;100.00;101880.22;5038844;28;20491;-76
2022/10/07 03:05:56;;;;;;;7.82;7.03;;;;;;;4.45;100.00;101875.75;5041359;28;20037;-76
2022/10/07 03:08:22;;;;;;;10.57;6.85;;;;;;;4.42;100.00;101871.28;5049555;28;20035;-76
2022/10/07 03:10:48;;;;;;;9.27;6.47;;;;;;;4.33;100.00;101877.03;5037960;28;20084;-76
2022/10/07 03:13:14;;;;;;;6.15;5.55;;;;;;;4.33;100.00;101879.66;5041245;28;20040;-76
2022/10/07 03:15:43;;;;;;;6.72;5.90;;;;;;;4.32;100.00;101877.88;5036056;28;20071;-76
2022/10/07 03:18:34;;;;;;;8.48;6.00;;;;;;;4.32;100.00;101867.44;5025998;28;20040;-76
2022/10/07 03:21:15;;;;;;;7.95;6.40;;;;;;;4.34;100.00;101872.69;5040668;28;20036;-76
2022/10/07 03:23:40;;;;;;;8.90;7.15;;;;;;;4.35;100.00;101870.16;5035680;28;20037;-76
2022/10/07 03:26:05;;;;;;;9.80;6.63;;;;;;;4.29;100.00;101867.28;5023131;28;20040;-76
2022/10/07 03:28:34;;;;;;;8.95;6.85;;;;;;;4.29;100.00;101872.50;5049252;28;20056;-76
2022/10/07 03:31:06;;;;;;;7.90;7.10;;;;;;;4.30;100.00;101870.81;5037507;28;20032;-76
2022/10/07 03:33:34;;;;;;;8.63;7.35;;;;;;;4.31;100.00;101865.63;5040351;28;20437;-76
2022/10/07 03:35:59;;;;;;;12.32;8.48;;;;;;;4.26;100.00;101861.94;5036283;28;20128;-76
2022/10/07 03:38:25;;;;;;;11.27;7.65;;;;;;;4.26;100.00;101864.53;5056585;22;20172;-79
2022/10/07 03:40:50;;;;;;;11.75;8.35;;;;;;;4.23;100.00;101867.03;5048427;28;20038;-79
2022/10/07 03:43:17;;;;;;;8.70;7.80;;;;;;;4.29;100.00;101862.06;5048300;28;20067;-79
2022/10/07 03:45:49;;;;;;;10.77;7.53;;;;;;;4.27;100.00;101863.75;5050242;28;20056;-79
2022/10/07 03:48:14;;;;;;;10.82;7.38;;;;;;;4.26;100.00;101848.88;5050642;28;20495;-79
2022/10/07 03:50:40;;;;;;;15.13;7.93;;;;;;;4.27;100.00;101853.28;5052012;28;20087;-79
2022/10/07 03:53:06;;;;;;;15.40;8.77;;;;;;;4.29;100.00;101846.38;5059308;28;20485;-79
2022/10/07 03:55:31;;;;;;;11.35;7.43;;;;;;;4.30;100.00;101839.44;5052880;28;20025;-80
2022/10/07 03:57:57;;;;;;;9.40;7.97;;;;;;;4.29;100.00;101846.38;5068622;28;20032;-79
2022/10/07 04:00:24;;;;;;;9.20;7.60;;;;;;;4.27;100.00;101842.81;5062020;28;20088;-79
2022/10/07 04:02:53;;;;;;;9.95;7.40;;;;;;;4.25;100.00;101846.22;5050749;28;20032;-79
2022/10/07 04:05:20;;;;;;;9.50;7.45;;;;;;;4.24;100.00;101842.69;5057967;28;20044;-80
2022/10/07 04:07:48;;;;;;;9.18;7.90;;;;;;;4.20;100.00;101834.69;5055357;28;20056;-79
2022/10/07 04:10:16;;;;;;;8.82;7.65;;;;;;;4.19;100.00;101833.75;5054821;28;20067;-79
2022/10/07 04:12:47;;;;;;;9.52;7.25;;;;;;;4.21;100.00;101834.72;5063495;28;20473;-80
2022/10/07 04:15:12;;;;;;;10.10;6.88;;;;;;;4.23;100.00;101833.06;5063574;28;20033;-80
2022/10/07 04:17:40;;;;;;;9.55;7.05;;;;;;;4.27;100.00;101826.22;5058529;28;20033;-79
2022/10/07 04:20:08;;;;;;;11.18;6.90;;;;;;;4.22;100.00;101823.47;5051335;28;20116;-80
2022/10/07 04:22:33;;;;;;;9.75;7.95;;;;;;;4.19;100.00;101818.06;5059826;28;20044;-79
2022/10/07 04:27:43;;;;;;;7.82;6.60;;;;;;;4.20;100.00;101814.66;5054999;28;20025;-79
2022/10/07 04:30:09;;;;;;;7.75;6.70;;;;;;;4.21;100.00;101811.19;5067194;28;20029;-80
2022/10/07 04:32:35;;;;;;;7.72;6.80;;;;;;;4.20;100.00;101817.28;5059123;28;20094;-80
2022/10/07 04:35:02;;;;;;;13.35;7.10;;;;;;;4.22;100.00;101809.47;5054225;28;20029;-80
2022/10/07 04:37:28;;;;;;;9.90;6.20;;;;;;;4.21;100.00;101805.97;5036656;28;20414;-79
2022/10/07 04:39:55;;;;;;;9.00;7.15;;;;;;;4.21;100.00;101805.97;5050891;28;20045;-80
2022/10/07 04:45:06;;;;;;;10.75;6.85;;;;;;;4.19;100.00;101810.25;5070375;28;20061;-80
2022/10/07 04:47:34;;;;;;;7.70;6.90;;;;;;;4.18;100.00;101804.13;5060534;28;20037;-79
2022/10/07 04:50:02;;;;;;;9.13;7.57;;;;;;;4.16;100.00;101807.50;5053997;28;20115;-79
2022/10/07 04:52:27;;;;;;;8.10;7.03;;;;;;;4.20;100.00;101805.94;5048934;28;20064;-80
2022/10/07 04:54:53;;;;;;;16.35;7.95;;;;;;;4.22;100.00;101797.31;5053377;28;20065;-79
2022/10/07 04:57:19;;;;;;;10.70;8.40;;;;;;;4.23;100.00;101792.97;5049198;28;20443;-79
2022/10/07 04:59:45;;;;;;;7.80;6.65;;;;;;;4.18;100.00;101796.28;5050190;28;20037;-79
2022/10/07 05:02:15;;;;;;;14.50;8.38;;;;;;;4.19;100.00;101802.41;5048865;28;20032;-80
2022/10/07 05:04:43;;;;;;;13.07;9.80;;;;;;;4.18;100.00;101798.03;5051688;28;20402;-79
2022/10/07 05:07:09;;;;;;;9.80;8.77;;;;;;;4.16;100.00;101797.06;5061597;28;20036;-79
2022/10/07 05:09:35;;;;;;;10.20;7.95;;;;;;;4.10;100.00;101788.97;5062682;28;20033;-80
2022/10/07 05:12:00;;;;;;;10.80;8.75;;;;;;;4.05;100.00;101794.00;5052711;28;20044;-79
2022/10/07 05:14:29;;;;;;;8.32;7.25;;;;;;;4.04;100.00;101789.63;5062731;28;20043;-79
2022/10/07 05:16:55;;;;;;;15.30;8.63;;;;;;;4.05;100.00;101783.56;5053061;28;20057;-79
2022/10/07 05:19:24;;;;;;;12.02;8.52;;;;;;;4.11;100.00;101777.69;5057522;28;20033;-79
2022/10/07 05:21:51;;;;;;;9.98;8.35;;;;;;;4.15;100.00;101784.84;5053321;28;20039;-79
2022/10/07 05:24:17;;;;;;;11.55;9.05;;;;;;;4.17;100.00;101785.78;5049430;28;20029;-79
2022/10/07 05:26:43;;;;;;;11.75;8.43;;;;;;;4.18;100.00;101780.59;5056019;28;20036;-79
2022/10/07 05:29:08;;;;;;;10.10;8.25;;;;;;;4.17;100.00;101784.06;5050238;28;20040;-80
2022/10/07 05:31:42;;;;;;;8.65;7.47;;;;;;;4.19;100.00;101781.50;5052557;28;20039;-80
2022/10/07 05:34:08;;;;;;;9.50;8.07;;;;;;;4.16;100.00;101779.66;5051047;28;20041;-79
2022/10/07 05:36:35;;;;;;;13.40;8.98;;;;;;;4.26;100.00;101773.06;5048087;28;20029;-79
2022/10/07 05:39:02;;;;;;;14.55;8.70;;;;;;;4.37;100.00;101760.44;5060841;28;20029;-79
2022/10/07 05:41:46;;;;;;;10.13;9.07;;;;;;;4.46;100.00;101765.13;5052015;28;20040;-80
2022/10/07 05:44:14;;;;;;;13.88;8.90;;;;;;;4.52;100.00;101757.53;5052690;28;20036;-79
2022/10/07 05:46:40;;;;;;;12.45;8.73;;;;;;;4.56;100.00;101754.19;5058054;28;20033;-79
2022/10/07 05:49:06;;;;;;;10.40;8.98;;;;;;;4.55;100.00;101761.13;5045280;28;20033;-79
2022/10/07 05:51:34;;;;;;;9.45;8.13;;;;;;;4.59;100.00;101756.94;5043717;28;20036;-80
2022/10/07 05:53:59;;;;;;;10.60;8.18;;;;;;;4.61;100.00;101755.25;5052532;28;20033;-79
2022/10/07 05:56:35;;;;;;;16.88;11.73;;;;;;;4.70;100.00;101758.22;5050786;28;20056;-80
2022/10/07 05:59:03;;;;;;;10.90;9.23;;;;;;;4.84;100.00;101758.72;5047900;28;20071;-79
2022/10/07 06:01:28;;;;;;;14.75;10.77;;;;;;;4.91;100.00;101760.72;5048204;28;20033;-80
2022/10/07 06:03:57;;;;;;;11.43;9.18;;;;;;;4.99;100.00;101755.78;5032520;28;20517;-79
2022/10/07 06:06:25;;;;;;;15.10;10.48;;;;;;;5.10;100.00;101756.16;5045007;28;20033;-79
2022/10/07 06:08:52;;;;;;;10.27;8.43;;;;;;;5.19;100.00;101757.38;5049165;28;20036;-79
2022/10/07 06:14:04;;;;;;;11.98;8.30;;;;;;;5.40;99.53;101754.63;5049556;28;20570;-79
2022/10/07 06:16:30;;;;;;;20.85;9.27;;;;;;;5.47;100.00;101755.72;5059990;28;20144;-79
2022/10/07 06:18:55;;;;;;;16.70;9.82;;;;;;;5.57;100.00;101759.53;5050292;28;20481;-79
2022/10/07 06:21:26;;;;;;;12.50;8.55;;;;;;;5.66;100.00;101755.50;5051203;28;20036;-79
2022/10/07 06:23:54;;;;;;;12.23;8.52;;;;;;;5.79;100.00;101755.91;5060033;28;20487;-78
2022/10/07 06:26:23;;;;;;;11.80;8.07;;;;;;;5.92;100.00;101747.59;5050547;28;20124;-78
2022/10/07 06:28:49;;;;;;;11.13;8.88;;;;;;;6.07;100.00;101747.25;5050665;28;20028;-79
2022/10/07 06:31:22;;;;;;;11.50;8.35;;;;;;;6.21;100.00;101743.34;5048917;28;20036;-79
2022/10/07 06:33:48;;;;;;;;;;;;;;;6.30;100.00;101742.72;5046621;28;20047;-79
2022/10/07 06:36:14;;;;;;;22.38;11.27;;;;;;;6.43;100.00;101746.59;5047128;28;20433;-79
2022/10/07 06:38:47;;;;;;;19.58;10.70;;;;;;;6.56;100.00;101747.00;5045874;28;20495;-79
2022/10/07 06:41:13;;;;;;;21.10;10.75;;;;;;;6.67;100.00;101743.81;5048783;28;20032;-79
2022/10/07 06:43:39;;;;;;;17.60;9.45;;;;;;;6.77;100.00;101743.25;5050198;28;20067;-79
2022/10/07 06:46:12;;;;;;;17.83;9.13;;;;;;;6.89;100.00;101733.09;5047793;28;20064;-79
2022/10/07 06:48:40;;;;;;;15.82;9.07;;;;;;;7.00;100.00;101734.28;5060885;28;20033;-79
2022/10/07 06:51:06;;;;;;;14.55;9.52;;;;;;;7.13;100.00;101739.88;5050295;28;20029;-79
2022/10/07 06:53:32;;;;;;;13.43;9.57;;;;;;;7.23;100.00;101734.00;5059291;28;20029;-79
2022/10/07 06:56:03;;;;;;;15.88;8.32;;;;;;;7.33;100.00;101733.41;5050025;28;20036;-79
2022/10/07 06:58:31;;;;;;;11.07;9.15;;;;;;;7.42;100.00;101731.03;5044042;28;20045;-79
2022/10/07 07:01:01;;;;;;;13.50;8.35;;;;;;;7.54;100.00;101726.91;5049948;28;20041;-79
2022/10/07 07:03:28;;;;;;;13.77;8.13;;;;;;;7.62;100.00;101723.66;5059214;28;20047;-79
2022/10/07 07:05:54;;;;;;;10.25;8.40;;;;;;;7.72;100.00;101722.13;5050145;28;20503;-79
2022/10/07 07:08:26;;;;;;;24.50;12.80;;;;;;;7.83;100.00;101728.56;5058048;28;20025;-79
2022/10/07 07:10:52;;;;;;;14.55;10.40;;;;;;;7.96;100.00;101718.31;5050200;28;20513;-79
2022/10/07 07:13:18;;;;;;;14.95;9.27;;;;;;;8.09;100.00;101715.09;5050698;28;20041;-79
2022/10/07 07:15:53;;;;;;;11.55;9.48;;;;;;;8.22;100.00;101714.53;5059133;28;20040;-79
2022/10/07 07:18:18;;;;;;;11.43;8.95;;;;;;;8.34;100.00;101706.03;5046887;28;20083;-78
2022/10/07 07:20:44;;;;;;;12.93;9.02;;;;;;;8.42;100.00;101709.75;5049266;28;20430;-79
2022/10/07 07:23:09;;;;;;;15.35;8.15;;;;;;;8.52;99.88;101705.59;5059005;28;20029;-79
2022/10/07 07:25:43;;;;;;;11.45;8.50;;;;;;;8.60;99.95;101704.00;5049751;28;20110;-79
2022/10/07 07:28:08;;;;;;;13.50;9.00;;;;;;;8.71;99.68;101713.00;5062106;28;20037;-79
2022/10/07 07:30:35;;;;;;;15.65;9.30;;;;;;;8.80;99.24;101709.66;5050847;28;20514;-79
2022/10/07 07:33:03;;;;;;;10.88;8.30;;;;;;;8.90;98.97;101702.81;5062397;28;20029;-79
2022/10/07 07:35:31;;;;;;;9.98;8.48;;;;;;;8.96;98.80;101702.94;5053319;28;20056;-79
2022/10/07 07:38:00;;;;;;;12.70;9.15;;;;;;;9.06;98.00;101704.88;5061768;28;20060;-79
2022/10/07 07:40:26;;;;;;;9.68;8.15;;;;;;;9.15;98.10;101696.28;5058963;28;20029;-79
2022/10/07 07:42:55;;;;;;;16.40;9.73;;;;;;;9.28;97.67;101694.78;5053623;28;20495;-79
2022/10/07 07:45:22;;;;;;;11.88;8.93;;;;;;;9.40;97.68;101700.22;5062256;28;20044;-79
2022/10/07 07:47:48;;;;;;;16.83;9.43;;;;;;;9.49;97.47;101697.78;5053213;28;20179;-79
2022/10/07 07:50:17;;;;;;;15.55;9.85;;;;;;;9.58;97.19;101700.53;5046695;28;20025;-79
2022/10/07 07:52:43;;;;;;;11.80;8.45;;;;;;;9.65;98.16;101694.50;5060469;28;20033;-79
2022/10/07 07:55:09;;;;;;;12.25;10.00;;;;;;;9.77;98.13;101693.84;5060547;28;20100;-79
2022/10/07 07:57:36;;;;;;;17.63;11.70;;;;;;;9.90;98.15;101692.25;5050700;28;20029;-79
2022/10/07 08:00:06;;;;;;;12.80;8.60;;;;;;;10.04;97.99;101700.38;5034632;28;20059;-79
2022/10/07 08:02:39;;;;;;;12.63;9.70;;;;;;;10.19;98.70;101695.34;5053497;28;20047;-79
2022/10/07 08:05:06;;;;;;;14.43;9.55;;;;;;;10.36;99.25;101692.06;5039710;28;20033;-79
2022/10/07 08:07:34;;;;;;;10.68;9.20;;;;;;;10.52;98.29;101684.34;5052618;28;20036;-77
2022/10/07 08:10:01;;;;;;;13.60;10.18;;;;;;;10.69;98.39;101686.34;5047356;28;20026;-77
2022/10/07 08:12:27;;;;;;;17.95;9.55;;;;;;;10.81;97.46;101677.66;5043725;28;20036;-77
2022/10/07 08:14:53;;;;;;;13.95;9.15;;;;;;;10.94;97.37;101671.63;5051326;28;20120;-77
2022/10/07 08:17:19;;;;;;;13.90;9.20;;;;;;;11.09;97.29;101670.91;5060956;28;20128;-77
2022/10/07 08:19:44;;;;;;;12.23;8.65;;;;;;;11.25;97.07;101666.66;5052187;28;20401;-77
2022/10/07 08:22:12;;;;;;;12.57;9.30;;;;;;;11.42;97.08;101662.38;5060531;28;20390;-77
2022/10/07 08:24:37;;;;;;;17.08;9.73;;;;;;;11.55;96.83;101660.75;5061134;28;20039;-77
2022/10/07 08:27:03;;;;;;;12.23;9.57;;;;;;;11.70;96.06;101665.28;5051955;28;20029;-77
2022/10/07 08:29:29;;;;;;;13.80;10.18;;;;;;;11.82;95.09;101658.31;5053288;28;20040;-77
2022/10/07 08:31:54;;;;;;;12.35;9.93;;;;;;;11.90;94.95;101663.69;5052005;28;20025;-77
2022/10/07 08:34:19;;;;;;;11.90;9.02;;;;;;;12.09;94.10;101654.09;5051942;28;20044;-77
2022/10/07 08:36:46;;;;;;;13.63;11.43;;;;;;;12.25;93.27;101653.28;5049988;28;20086;-77
2022/10/07 08:39:13;;;;;;;12.15;10.63;;;;;;;12.30;92.37;101652.44;5051047;28;20048;-77
2022/10/07 08:41:56;;;;;;;13.32;9.77;;;;;;;12.39;91.80;101641.88;5051675;28;20044;-76
2022/10/07 08:44:31;;;;;;;10.38;9.35;;;;;;;12.54;91.37;101646.34;5049725;28;20055;-77
2022/10/07 08:47:19;;;;;;;13.13;8.88;;;;;;;12.69;91.19;101646.41;5052729;28;20147;-77
2022/10/07 08:49:59;;;;;;;14.43;10.90;;;;;;;12.78;89.92;101633.16;5051217;28;20102;-77
2022/10/07 08:52:33;;;;;;;13.50;10.43;;;;;;;12.91;90.28;101636.72;5048910;28;20506;-77
2022/10/07 08:55:00;;;;;;;15.40;10.68;;;;;;;13.04;90.01;101638.50;5048657;28;20118;-77
2022/10/07 08:57:37;;;;;;;13.60;9.52;;;;;;;13.15;89.37;101631.47;5042886;28;20491;-77
2022/10/07 09:00:05;;;;;;;14.52;10.75;;;;;;;13.19;88.94;101628.84;5052885;28;20464;-77
2022/10/07 09:02:58;;;;;;;12.15;8.10;;;;;;;13.31;88.58;101626.22;5052853;28;20017;-77
2022/10/07 09:05:28;;;;;;;13.45;9.82;;;;;;;13.40;87.90;101631.50;5051128;28;20044;-77
2022/10/07 09:07:58;;;;;;;14.20;10.65;;;;;;;13.54;87.61;101624.41;5049540;28;20120;-77
2022/10/07 09:10:43;;;;;;;12.73;10.02;;;;;;;13.65;86.15;101615.56;5050744;28;20514;-77
2022/10/07 09:13:14;;;;;;;9.18;8.27;;;;;;;13.74;85.92;101610.25;5048995;28;20075;-77
2022/10/07 09:16:03;;;;;;;12.63;8.75;;;;;;;13.88;85.20;101613.75;5064598;28;20033;-77
2022/10/07 09:18:34;;;;;;;10.68;8.07;;;;;;;14.06;84.10;101611.94;5049516;28;20099;-77
2022/10/07 09:21:04;;;;;;;12.85;8.80;;;;;;;14.13;83.23;101608.38;5051599;28;20044;-77
2022/10/07 09:23:32;;;;;;;13.25;8.68;;;;;;;14.16;83.30;101598.63;5046689;28;20144;-77
2022/10/07 09:25:57;;;;;;;11.18;8.55;;;;;;;14.24;83.09;101601.25;5052086;28;20407;-77
2022/10/07 09:28:28;;;;;;;13.55;9.65;;;;;;;14.34;82.20;101596.78;5050829;28;20040;-77
2022/10/07 09:30:55;;;;;;;13.90;9.88;;;;;;;14.44;82.44;101596.75;5046981;28;20040;-77
2022/10/07 09:33:22;;;;;;;18.23;12.85;;;;;;;14.51;81.05;101594.03;5047145;28;20080;-77
2022/10/07 09:36:12;;;;;;;14.32;11.75;;;;;;;14.74;81.49;101591.28;5048779;28;20060;-77
2022/10/07 09:38:42;;;;;;;14.63;10.32;;;;;;;14.82;80.58;101579.69;5043602;28;20064;-77
2022/10/07 09:41:22;;;;;;;13.77;11.95;;;;;;;14.98;79.67;101582.25;5073193;22;20406;-77
2022/10/07 09:43:58;;;;;;;18.70;15.20;;;;;;;15.07;79.63;101574.22;5063544;28;20079;-77
2022/10/07 09:46:45;;;;;;;19.88;13.25;;;;;;;15.15;79.17;101571.50;5063515;28;20039;-77
2022/10/07 09:49:28;;;;;;;17.63;13.27;;;;;;;15.24;78.16;101564.31;5064346;28;20441;-77
2022/10/07 09:52:03;;;;;;;17.10;12.43;;;;;;;15.36;77.51;101559.78;5040903;28;20063;-77
2022/10/07 09:54:31;;;;;;;16.83;13.98;;;;;;;15.49;77.60;101564.09;5038044;28;20064;-77
2022/10/07 09:56:59;;;;;;;16.42;12.95;;;;;;;15.69;77.91;101558.56;5037843;28;20041;-77
2022/10/07 09:59:25;;;;;;;15.73;11.98;;;;;;;15.73;76.35;101553.22;5044894;28;20032;-77
2022/10/07 10:01:54;;;;;;;14.75;11.82;;;;;;;15.83;76.13;101551.34;5040305;28;20037;-77
2022/10/07 10:04:27;;;;;;;13.63;11.55;;;;;;;15.88;75.84;101546.84;5045492;28;20555;-77
2022/10/07 10:06:54;;;;;;;25.38;17.33;;;;;;;15.97;76.28;101549.38;5044312;28;20075;-77
2022/10/07 10:09:23;;;;;;;16.13;12.80;;;;;;;15.97;74.55;101543.16;5046377;28;20041;-77
2022/10/07 10:12:12;;;;;;;16.08;12.38;;;;;;;16.04;75.68;101539.53;5043254;28;20037;-77
2022/10/07 10:14:56;;;;;;;12.95;10.93;;;;;;;16.17;74.26;101529.63;5037900;28;20048;-77
2022/10/07 10:17:34;;;;;;;15.00;12.45;;;;;;;16.29;73.20;101524.09;5037888;28;20043;-77
2022/10/07 10:20:26;;;;;;;17.50;11.60;;;;;;;16.33;72.34;101523.16;5050954;28;20048;-77
2022/10/07 10:22:52;;;;;;;9.65;8.32;;;;;;;16.44;71.50;101525.66;5040842;28;20095;-77
2022/10/07 10:29:02;;;;;;;13.82;11.52;;;;;;;16.61;68.07;101507.66;5023397;28;20052;-77
2022/10/07 10:31:44;;;;;;;9.63;8.43;;;;;;;16.80;68.21;101505.59;5046148;28;20033;-77
2022/10/07 10:34:26;;;;;;;10.38;7.60;;;;;;;16.81;66.45;101511.81;5039811;28;20480;-77
2022/10/07 10:36:59;;;;;;;10.93;7.13;;;;;;;16.93;67.55;101508.94;5044761;28;20037;-77
2022/10/07 10:40:02;;;;;;;8.80;7.90;;;;;;;17.06;65.69;101501.63;5037716;28;20037;-77
2022/10/07 10:43:01;;;;;;;11.90;9.70;;;;;;;17.11;65.67;101494.41;5040565;28;20049;-77
2022/10/07 10:46:04;;;;;;;11.85;8.57;;;;;;;17.08;65.52;101489.13;5041830;28;20098;-77
2022/10/07 10:48:45;;;;;;;15.35;8.77;;;;;;;17.21;64.45;101482.69;5053422;28;20141;-77
2022/10/07 10:51:32;;;;;;;9.30;8.40;;;;;;;17.27;64.63;101487.00;5043710;28;20033;-77
2022/10/07 10:54:13;;;;;;;10.85;9.43;;;;;;;17.36;64.20;101473.47;5042289;28;20037;-77
2022/10/07 10:56:59;;;;;;;8.25;7.45;;;;;;;17.43;64.18;101468.91;5032979;28;20047;-77
2022/10/07 10:59:37;;;;;;;11.73;10.23;;;;;;;17.50;63.23;101466.09;5042396;28;20545;-76
2022/10/07 11:02:49;;;;;;;10.23;8.95;;;;;;;17.56;63.38;101453.53;5043202;28;20044;-77
2022/10/07 11:05:31;;;;;;;8.15;6.70;;;;;;;17.67;62.41;101456.88;5023565;28;20052;-77
2022/10/07 11:08:18;;;;;;;;;;;;;;;17.66;61.99;101449.78;5047718;28;20037;-77
2022/10/07 11:11:00;;;;;;;7.63;6.82;;;;;;;17.61;60.93;101449.00;5047296;28;19966;-77
2022/10/07 11:13:51;;;;;;;8.43;6.65;;;;;;;17.63;58.80;101439.13;5046442;28;20052;-77
2022/10/07 11:16:27;;;;;;;9.97;6.70;;;;;;;17.69;60.18;101436.38;5043393;28;20144;-77
2022/10/07 11:19:15;;;;;;;12.93;7.85;;;;;;;17.76;58.42;101435.28;5047653;28;20288;-77
2022/10/07 11:21:45;;;;;;;6.88;6.22;;;;;;;17.88;59.44;101424.38;5046661;28;20454;-77
2022/10/07 11:24:32;;;;;;;7.20;6.40;;;;;;;18.10;58.56;101414.13;5046277;28;20032;-77
2022/10/07 11:27:06;;;;;;;9.80;8.38;;;;;;;18.30;57.30;101415.44;5047636;28;20038;-77
2022/10/07 11:30:02;;;;;;;9.57;7.50;;;;;;;18.32;53.87;101409.13;5041541;28;20128;-76
2022/10/07 11:32:42;;;;;;;8.38;6.25;;;;;;;18.39;53.19;101394.72;5045779;28;20376;-77
2022/10/07 11:35:30;;;;;;;9.60;6.38;;;;;;;18.49;52.09;101397.13;5046196;28;20056;-77
2022/10/07 11:37:59;;;;;;;10.77;8.32;;;;;;;18.60;52.77;101392.38;5046210;28;20041;-77
2022/10/07 11:40:28;;;;;;;8.60;7.80;;;;;;;18.74;51.76;101382.22;5047253;28;20071;-76
2022/10/07 11:42:56;;;;;;;7.70;7.03;;;;;;;18.93;52.28;101379.09;5048460;28;20178;-77
2022/10/07 11:45:28;;;;;;;9.55;6.88;;;;;;;19.02;50.38;101373.47;5041249;28;20484;-77
2022/10/07 11:48:04;;;;;;;8.20;7.50;;;;;;;19.10;48.79;101366.13;5048165;28;20036;-77
2022/10/07 11:50:36;;;;;;;7.97;6.05;;;;;;;19.24;47.51;101363.91;5038835;28;20060;-77